sensor_id;sensor_type;location;lat;lon;timestamp;pressure;altitude;pressure_sealevel;temperature;humidity
26043;BME280;13818;52.156;5.382;2022-07-23T00:00:12;101660.22;;;17.64;100.00
26043;BME280;13818;52.156;5.382;2022-07-23T00:02:38;101652.50;;;17.72;100.00
26043;BME280;13818;52.156;5.382;2022-07-23T00:05:06;101654.41;;;17.85;100.00
26043;BME280;13818;52.156;5.382;2022-07-23T00:07:32;101653.84;;;17.80;100.00
26043;BME280;13818;52.156;5.382;2022-07-23T00:09:59;101653.97;;;17.78;100.00
26043;BME280;13818;52.156;5.382;2022-07-23T00:12:25;101650.97;;;17.68;100.00
26043;BME280;13818;52.156;5.382;2022-07-23T00:14:52;101656.66;;;17.78;100.00
26043;BME280;13818;52.156;5.382;2022-07-23T00:17:20;101650.13;;;17.68;100.00
26043;BME280;13818;52.156;5.382;2022-07-23T00:19:46;101646.19;;;17.59;100.00
26043;BME280;13818;52.156;5.382;2022-07-23T00:22:13;101649.44;;;17.64;100.00
26043;BME280;13818;52.156;5.382;2022-07-23T00:24:39;101647.09;;;17.72;100.00
26043;BME280;13818;52.156;5.382;2022-07-23T00:27:05;101650.78;;;17.71;100.00
26043;BME280;13818;52.156;5.382;2022-07-23T00:29:32;101648.28;;;17.68;100.00
26043;BME280;13818;52.156;5.382;2022-07-23T00:31:59;101645.78;;;17.65;100.00
26043;BME280;13818;52.156;5.382;2022-07-23T00:34:26;101635.50;;;17.58;100.00
26043;BME280;13818;52.156;5.382;2022-07-23T00:36:53;101642.59;;;17.59;100.00
26043;BME280;13818;52.156;5.382;2022-07-23T00:39:19;101639.63;;;17.49;100.00
26043;BME280;13818;52.156;5.382;2022-07-23T00:41:47;101640.78;;;17.45;100.00
26043;BME280;13818;52.156;5.382;2022-07-23T00:44:15;101647.31;;;17.40;100.00
26043;BME280;13818;52.156;5.382;2022-07-23T00:46:45;101641.16;;;17.38;100.00
26043;BME280;13818;52.156;5.382;2022-07-23T00:49:12;101638.66;;;17.35;100.00
26043;BME280;13818;52.156;5.382;2022-07-23T00:51:40;101635.97;;;17.35;100.00
26043;BME280;13818;52.156;5.382;2022-07-23T00:54:07;101637.81;;;17.35;100.00
26043;BME280;13818;52.156;5.382;2022-07-23T00:56:34;101631.91;;;17.28;100.00
26043;BME280;13818;52.156;5.382;2022-07-23T00:59:01;101633.44;;;17.18;100.00
26043;BME280;13818;52.156;5.382;2022-07-23T01:01:27;101632.50;;;17.19;100.00
26043;BME280;13818;52.156;5.382;2022-07-23T01:03:54;101625.19;;;17.21;100.00
26043;BME280;13818;52.156;5.382;2022-07-23T01:06:20;101623.53;;;17.18;100.00
26043;BME280;13818;52.156;5.382;2022-07-23T01:08:48;101624.38;;;17.04;100.00
26043;BME280;13818;52.156;5.382;2022-07-23T01:11:14;101619.00;;;17.04;100.00
26043;BME280;13818;52.156;5.382;2022-07-23T01:13:42;101607.84;;;17.11;100.00
26043;BME280;13818;52.156;5.382;2022-07-23T01:16:09;101615.84;;;17.12;100.00
26043;BME280;13818;52.156;5.382;2022-07-23T01:18:35;101618.91;;;17.06;100.00
26043;BME280;13818;52.156;5.382;2022-07-23T01:21:02;101618.78;;;16.93;100.00
26043;BME280;13818;52.156;5.382;2022-07-23T01:23:30;101616.63;;;16.84;100.00
26043;BME280;13818;52.156;5.382;2022-07-23T01:25:56;101618.53;;;16.82;100.00
26043;BME280;13818;52.156;5.382;2022-07-23T01:28:23;101619.19;;;16.71;100.00
26043;BME280;13818;52.156;5.382;2022-07-23T01:30:49;101613.97;;;16.68;100.00
26043;BME280;13818;52.156;5.382;2022-07-23T01:33:16;101607.84;;;16.66;100.00
26043;BME280;13818;52.156;5.382;2022-07-23T01:35:42;101619.31;;;16.53;100.00
26043;BME280;13818;52.156;5.382;2022-07-23T01:38:09;101613.63;;;16.43;100.00
26043;BME280;13818;52.156;5.382;2022-07-23T01:40:36;101605.38;;;16.47;100.00
26043;BME280;13818;52.156;5.382;2022-07-23T01:43:03;101614.66;;;16.41;100.00
26043;BME280;13818;52.156;5.382;2022-07-23T01:45:29;101604.34;;;16.33;100.00
26043;BME280;13818;52.156;5.382;2022-07-23T01:47:56;101609.72;;;16.33;100.00
26043;BME280;13818;52.156;5.382;2022-07-23T01:50:22;101610.53;;;16.35;100.00
26043;BME280;13818;52.156;5.382;2022-07-23T01:52:48;101615.81;;;16.37;100.00
26043;BME280;13818;52.156;5.382;2022-07-23T01:55:15;101610.59;;;16.34;100.00
26043;BME280;13818;52.156;5.382;2022-07-23T01:57:43;101611.72;;;16.30;100.00
26043;BME280;13818;52.156;5.382;2022-07-23T02:00:10;101614.69;;;16.25;100.00
26043;BME280;13818;52.156;5.382;2022-07-23T02:02:37;101612.19;;;16.22;100.00
26043;BME280;13818;52.156;5.382;2022-07-23T02:05:04;101608.09;;;16.15;100.00
26043;BME280;13818;52.156;5.382;2022-07-23T02:07:31;101609.50;;;16.22;100.00
26043;BME280;13818;52.156;5.382;2022-07-23T02:09:57;101612.38;;;16.19;100.00
26043;BME280;13818;52.156;5.382;2022-07-23T02:12:24;101610.03;;;16.13;100.00
26043;BME280;13818;52.156;5.382;2022-07-23T02:14:51;101604.22;;;16.20;100.00
26043;BME280;13818;52.156;5.382;2022-07-23T02:17:18;101611.59;;;16.17;100.00
26043;BME280;13818;52.156;5.382;2022-07-23T02:19:45;101601.97;;;16.13;100.00
26043;BME280;13818;52.156;5.382;2022-07-23T02:22:12;101604.56;;;16.14;100.00
26043;BME280;13818;52.156;5.382;2022-07-23T02:24:38;101604.91;;;16.08;100.00
26043;BME280;13818;52.156;5.382;2022-07-23T02:27:04;101601.53;;;16.04;100.00
26043;BME280;13818;52.156;5.382;2022-07-23T02:29:31;101609.44;;;15.91;100.00
26043;BME280;13818;52.156;5.382;2022-07-23T02:31:59;101599.88;;;15.86;100.00
26043;BME280;13818;52.156;5.382;2022-07-23T02:34:25;101603.53;;;15.85;100.00
26043;BME280;13818;52.156;5.382;2022-07-23T02:36:52;101608.81;;;15.86;100.00
26043;BME280;13818;52.156;5.382;2022-07-23T02:39:18;101598.94;;;15.87;100.00
26043;BME280;13818;52.156;5.382;2022-07-23T02:41:44;101607.69;;;15.90;100.00
26043;BME280;13818;52.156;5.382;2022-07-23T02:44:11;101604.22;;;15.88;100.00
26043;BME280;13818;52.156;5.382;2022-07-23T02:46:37;101607.88;;;15.87;100.00
26043;BME280;13818;52.156;5.382;2022-07-23T02:49:05;101609.28;;;15.77;100.00
26043;BME280;13818;52.156;5.382;2022-07-23T02:51:31;101620.47;;;15.69;100.00
26043;BME280;13818;52.156;5.382;2022-07-23T02:53:58;101623.50;;;15.63;100.00
26043;BME280;13818;52.156;5.382;2022-07-23T02:56:25;101628.25;;;15.58;100.00
26043;BME280;13818;52.156;5.382;2022-07-23T02:58:51;101617.94;;;15.50;100.00
26043;BME280;13818;52.156;5.382;2022-07-23T03:01:17;101620.84;;;15.45;100.00
26043;BME280;13818;52.156;5.382;2022-07-23T03:03:44;101616.78;;;15.38;100.00
26043;BME280;13818;52.156;5.382;2022-07-23T03:06:12;101627.78;;;15.34;100.00
26043;BME280;13818;52.156;5.382;2022-07-23T03:08:38;101638.94;;;15.26;100.00
26043;BME280;13818;52.156;5.382;2022-07-23T03:11:05;101635.44;;;15.24;100.00
26043;BME280;13818;52.156;5.382;2022-07-23T03:13:36;101654.50;;;15.19;100.00
26043;BME280;13818;52.156;5.382;2022-07-23T03:16:02;101646.50;;;15.18;100.00
26043;BME280;13818;52.156;5.382;2022-07-23T03:18:29;101645.66;;;15.17;100.00
26043;BME280;13818;52.156;5.382;2022-07-23T03:20:55;101655.69;;;15.13;100.00
26043;BME280;13818;52.156;5.382;2022-07-23T03:23:23;101648.97;;;15.05;100.00
26043;BME280;13818;52.156;5.382;2022-07-23T03:25:50;101645.50;;;15.03;100.00
26043;BME280;13818;52.156;5.382;2022-07-23T03:28:17;101650.81;;;15.04;100.00
26043;BME280;13818;52.156;5.382;2022-07-23T03:30:44;101650.00;;;15.02;100.00
26043;BME280;13818;52.156;5.382;2022-07-23T03:33:11;101652.88;;;14.99;100.00
26043;BME280;13818;52.156;5.382;2022-07-23T03:35:38;101652.78;;;15.01;100.00
26043;BME280;13818;52.156;5.382;2022-07-23T03:38:05;101654.75;;;14.97;100.00
26043;BME280;13818;52.156;5.382;2022-07-23T03:40:32;101659.31;;;14.95;100.00
26043;BME280;13818;52.156;5.382;2022-07-23T03:42:59;101654.13;;;14.92;100.00
26043;BME280;13818;52.156;5.382;2022-07-23T03:45:25;101657.94;;;14.88;100.00
26043;BME280;13818;52.156;5.382;2022-07-23T03:47:52;101653.50;;;14.87;100.00
26043;BME280;13818;52.156;5.382;2022-07-23T03:50:18;101655.38;;;14.85;100.00
26043;BME280;13818;52.156;5.382;2022-07-23T03:52:45;101646.31;;;14.87;100.00
26043;BME280;13818;52.156;5.382;2022-07-23T03:55:12;101645.91;;;14.95;100.00
26043;BME280;13818;52.156;5.382;2022-07-23T03:57:40;101640.72;;;14.92;100.00
26043;BME280;13818;52.156;5.382;2022-07-23T04:00:08;101635.16;;;14.95;100.00
26043;BME280;13818;52.156;5.382;2022-07-23T04:02:35;101627.91;;;14.97;100.00
26043;BME280;13818;52.156;5.382;2022-07-23T04:05:02;101641.09;;;15.02;100.00
26043;BME280;13818;52.156;5.382;2022-07-23T04:07:29;101638.78;;;15.11;100.00
26043;BME280;13818;52.156;5.382;2022-07-23T04:09:56;101636.97;;;15.29;100.00
26043;BME280;13818;52.156;5.382;2022-07-23T04:12:22;101631.38;;;15.50;100.00
26043;BME280;13818;52.156;5.382;2022-07-23T04:14:50;101631.13;;;15.71;100.00
26043;BME280;13818;52.156;5.382;2022-07-23T04:17:17;101627.13;;;15.96;100.00
26043;BME280;13818;52.156;5.382;2022-07-23T04:19:43;101626.56;;;16.21;100.00
26043;BME280;13818;52.156;5.382;2022-07-23T04:22:10;101625.97;;;16.32;100.00
26043;BME280;13818;52.156;5.382;2022-07-23T04:24:37;101630.59;;;16.60;100.00
26043;BME280;13818;52.156;5.382;2022-07-23T04:27:04;101627.66;;;16.79;100.00
26043;BME280;13818;52.156;5.382;2022-07-23T04:29:30;101625.16;;;17.06;100.00
26043;BME280;13818;52.156;5.382;2022-07-23T04:31:58;101638.56;;;17.22;100.00
26043;BME280;13818;52.156;5.382;2022-07-23T04:34:24;101632.78;;;17.29;100.00
26043;BME280;13818;52.156;5.382;2022-07-23T04:36:52;101619.41;;;17.42;100.00
26043;BME280;13818;52.156;5.382;2022-07-23T04:39:18;101621.25;;;17.55;100.00
26043;BME280;13818;52.156;5.382;2022-07-23T04:41:44;101627.09;;;17.77;100.00
26043;BME280;13818;52.156;5.382;2022-07-23T04:44:11;101625.91;;;17.95;100.00
26043;BME280;13818;52.156;5.382;2022-07-23T04:46:37;101637.97;;;18.31;100.00
26043;BME280;13818;52.156;5.382;2022-07-23T04:49:05;101637.44;;;18.66;100.00
26043;BME280;13818;52.156;5.382;2022-07-23T04:51:32;101646.00;;;18.86;100.00
26043;BME280;13818;52.156;5.382;2022-07-23T04:53:58;101646.16;;;18.97;100.00
26043;BME280;13818;52.156;5.382;2022-07-23T04:56:25;101640.88;;;19.09;100.00
26043;BME280;13818;52.156;5.382;2022-07-23T04:58:51;101648.88;;;19.23;100.00
26043;BME280;13818;52.156;5.382;2022-07-23T05:01:18;101645.22;;;19.37;100.00
26043;BME280;13818;52.156;5.382;2022-07-23T05:03:44;101650.47;;;19.51;100.00
26043;BME280;13818;52.156;5.382;2022-07-23T05:06:12;101651.22;;;19.66;100.00
26043;BME280;13818;52.156;5.382;2022-07-23T05:08:38;101639.88;;;19.87;100.00
26043;BME280;13818;52.156;5.382;2022-07-23T05:11:05;101646.03;;;19.89;100.00
26043;BME280;13818;52.156;5.382;2022-07-23T05:13:31;101648.59;;;20.04;100.00
26043;BME280;13818;52.156;5.382;2022-07-23T05:15:58;101651.78;;;20.22;100.00
26043;BME280;13818;52.156;5.382;2022-07-23T05:18:24;101650.00;;;20.58;100.00
26043;BME280;13818;52.156;5.382;2022-07-23T05:20:50;101650.25;;;20.66;100.00
26043;BME280;13818;52.156;5.382;2022-07-23T05:23:18;101661.88;;;21.15;100.00
26043;BME280;13818;52.156;5.382;2022-07-23T05:25:45;101647.53;;;21.37;100.00
26043;BME280;13818;52.156;5.382;2022-07-23T05:28:11;101654.41;;;21.41;100.00
26043;BME280;13818;52.156;5.382;2022-07-23T05:30:38;101660.22;;;21.93;96.97
26043;BME280;13818;52.156;5.382;2022-07-23T05:33:04;101651.47;;;21.90;97.29
26043;BME280;13818;52.156;5.382;2022-07-23T05:35:32;101659.16;;;22.40;93.99
26043;BME280;13818;52.156;5.382;2022-07-23T05:37:59;101668.88;;;22.54;91.65
26043;BME280;13818;52.156;5.382;2022-07-23T05:40:27;101665.81;;;22.47;91.86
26043;BME280;13818;52.156;5.382;2022-07-23T05:42:54;101667.88;;;22.55;91.70
26043;BME280;13818;52.156;5.382;2022-07-23T05:45:20;101675.28;;;22.85;89.64
26043;BME280;13818;52.156;5.382;2022-07-23T05:47:48;101678.25;;;23.03;88.03
26043;BME280;13818;52.156;5.382;2022-07-23T05:50:15;101671.53;;;23.19;86.01
26043;BME280;13818;52.156;5.382;2022-07-23T05:52:42;101682.00;;;23.02;86.83
26043;BME280;13818;52.156;5.382;2022-07-23T05:55:10;101685.31;;;23.06;86.88
26043;BME280;13818;52.156;5.382;2022-07-23T05:57:39;101691.47;;;23.08;86.83
26043;BME280;13818;52.156;5.382;2022-07-23T06:00:06;101687.06;;;23.28;85.31
26043;BME280;13818;52.156;5.382;2022-07-23T06:02:33;101685.50;;;23.56;83.46
26043;BME280;13818;52.156;5.382;2022-07-23T06:05:00;101683.84;;;24.06;80.01
26043;BME280;13818;52.156;5.382;2022-07-23T06:07:26;101691.06;;;23.86;77.71
26043;BME280;13818;52.156;5.382;2022-07-23T06:09:53;101695.09;;;23.92;77.95
26043;BME280;13818;52.156;5.382;2022-07-23T06:12:19;101681.09;;;23.96;77.12
26043;BME280;13818;52.156;5.382;2022-07-23T06:14:47;101686.59;;;24.16;76.94
26043;BME280;13818;52.156;5.382;2022-07-23T06:17:15;101685.56;;;24.67;72.46
26043;BME280;13818;52.156;5.382;2022-07-23T06:19:41;101692.53;;;24.60;71.84
26043;BME280;13818;52.156;5.382;2022-07-23T06:22:08;101690.41;;;25.13;69.54
26043;BME280;13818;52.156;5.382;2022-07-23T06:24:35;101686.41;;;24.88;70.87
26043;BME280;13818;52.156;5.382;2022-07-23T06:27:01;101687.94;;;25.10;68.10
26043;BME280;13818;52.156;5.382;2022-07-23T06:29:27;101686.41;;;24.68;67.94
26043;BME280;13818;52.156;5.382;2022-07-23T06:31:55;101690.97;;;25.07;66.78
26043;BME280;13818;52.156;5.382;2022-07-23T06:34:22;101690.50;;;25.31;63.21
26043;BME280;13818;52.156;5.382;2022-07-23T06:36:48;101685.22;;;25.10;64.49
26043;BME280;13818;52.156;5.382;2022-07-23T06:39:15;101699.84;;;25.28;62.54
26043;BME280;13818;52.156;5.382;2022-07-23T06:41:41;101697.53;;;25.33;61.87
26043;BME280;13818;52.156;5.382;2022-07-23T06:44:08;101702.31;;;25.22;61.78
26043;BME280;13818;52.156;5.382;2022-07-23T06:46:34;101697.97;;;25.29;61.71
26043;BME280;13818;52.156;5.382;2022-07-23T06:49:02;101701.84;;;25.46;61.59
26043;BME280;13818;52.156;5.382;2022-07-23T06:51:30;101705.69;;;25.91;55.47
26043;BME280;13818;52.156;5.382;2022-07-23T06:53:56;101711.31;;;26.17;54.42
26043;BME280;13818;52.156;5.382;2022-07-23T06:56:23;101708.75;;;26.15;52.85
26043;BME280;13818;52.156;5.382;2022-07-23T06:58:50;101709.50;;;26.54;51.82
26043;BME280;13818;52.156;5.382;2022-07-23T07:01:16;101716.25;;;26.59;51.36
26043;BME280;13818;52.156;5.382;2022-07-23T07:03:43;101712.00;;;26.65;51.07
26043;BME280;13818;52.156;5.382;2022-07-23T07:06:11;101702.41;;;26.61;51.61
26043;BME280;13818;52.156;5.382;2022-07-23T07:08:37;101708.69;;;26.89;51.65
26043;BME280;13818;52.156;5.382;2022-07-23T07:11:04;101717.50;;;27.01;50.21
26043;BME280;13818;52.156;5.382;2022-07-23T07:13:30;101722.50;;;27.06;48.90
26043;BME280;13818;52.156;5.382;2022-07-23T07:15:57;101723.91;;;26.74;49.28
26043;BME280;13818;52.156;5.382;2022-07-23T07:18:23;101718.63;;;27.17;48.91
26043;BME280;13818;52.156;5.382;2022-07-23T07:20:50;101716.91;;;27.34;48.01
26043;BME280;13818;52.156;5.382;2022-07-23T07:23:18;101722.13;;;27.27;47.34
26043;BME280;13818;52.156;5.382;2022-07-23T07:25:45;101719.59;;;27.07;49.49
26043;BME280;13818;52.156;5.382;2022-07-23T07:28:12;101721.78;;;27.04;48.88
26043;BME280;13818;52.156;5.382;2022-07-23T07:30:40;101725.16;;;26.98;49.58
26043;BME280;13818;52.156;5.382;2022-07-23T07:33:06;101731.13;;;27.37;49.10
26043;BME280;13818;52.156;5.382;2022-07-23T07:35:33;101727.50;;;26.28;51.52
26043;BME280;13818;52.156;5.382;2022-07-23T07:37:59;101726.44;;;26.39;52.72
26043;BME280;13818;52.156;5.382;2022-07-23T07:40:27;101728.78;;;27.42;48.16
26043;BME280;13818;52.156;5.382;2022-07-23T07:42:54;101735.44;;;27.66;46.75
26043;BME280;13818;52.156;5.382;2022-07-23T07:45:22;101735.03;;;27.61;46.53
26043;BME280;13818;52.156;5.382;2022-07-23T07:47:50;101739.41;;;27.46;47.36
26043;BME280;13818;52.156;5.382;2022-07-23T07:50:16;101736.22;;;27.58;47.52
26043;BME280;13818;52.156;5.382;2022-07-23T07:52:43;101739.38;;;28.49;45.62
26043;BME280;13818;52.156;5.382;2022-07-23T07:55:10;101749.59;;;28.14;46.05
26043;BME280;13818;52.156;5.382;2022-07-23T07:57:38;101752.31;;;28.14;45.95
26043;BME280;13818;52.156;5.382;2022-07-23T08:00:07;101745.09;;;27.52;47.46
26043;BME280;13818;52.156;5.382;2022-07-23T08:02:40;101746.44;;;28.09;46.17
26043;BME280;13818;52.156;5.382;2022-07-23T08:05:07;101750.09;;;28.18;44.84
26043;BME280;13818;52.156;5.382;2022-07-23T08:07:34;101750.28;;;27.90;44.67
26043;BME280;13818;52.156;5.382;2022-07-23T08:10:00;101755.41;;;27.58;46.05
26043;BME280;13818;52.156;5.382;2022-07-23T08:12:26;101753.91;;;27.20;47.09
26043;BME280;13818;52.156;5.382;2022-07-23T08:14:54;101755.38;;;27.50;46.22
26043;BME280;13818;52.156;5.382;2022-07-23T08:17:21;101747.25;;;27.04;47.36
26043;BME280;13818;52.156;5.382;2022-07-23T08:19:47;101750.09;;;27.57;47.89
26043;BME280;13818;52.156;5.382;2022-07-23T08:22:13;101746.66;;;27.37;46.55
26043;BME280;13818;52.156;5.382;2022-07-23T08:24:40;101754.38;;;26.79;48.23
26043;BME280;13818;52.156;5.382;2022-07-23T08:27:06;101753.72;;;27.57;44.97
26043;BME280;13818;52.156;5.382;2022-07-23T08:29:33;101755.50;;;26.86;46.41
26043;BME280;13818;52.156;5.382;2022-07-23T08:32:00;101747.56;;;26.19;48.49
26043;BME280;13818;52.156;5.382;2022-07-23T08:34:27;101744.78;;;25.91;48.36
26043;BME280;13818;52.156;5.382;2022-07-23T08:36:53;101751.97;;;25.92;47.78
26043;BME280;13818;52.156;5.382;2022-07-23T08:39:20;101754.31;;;25.77;48.14
26043;BME280;13818;52.156;5.382;2022-07-23T08:41:47;101750.84;;;25.85;48.28
26043;BME280;13818;52.156;5.382;2022-07-23T08:44:15;101753.38;;;25.49;49.09
26043;BME280;13818;52.156;5.382;2022-07-23T08:46:43;101741.47;;;25.50;49.56
26043;BME280;13818;52.156;5.382;2022-07-23T08:49:11;101745.22;;;25.00;51.41
26043;BME280;13818;52.156;5.382;2022-07-23T08:51:39;101741.06;;;25.15;51.84
26043;BME280;13818;52.156;5.382;2022-07-23T08:54:06;101745.66;;;25.25;53.01
26043;BME280;13818;52.156;5.382;2022-07-23T08:56:34;101742.38;;;24.92;53.19
26043;BME280;13818;52.156;5.382;2022-07-23T08:59:01;101745.50;;;24.77;54.16
26043;BME280;13818;52.156;5.382;2022-07-23T09:01:27;101748.81;;;24.71;54.56
26043;BME280;13818;52.156;5.382;2022-07-23T09:03:54;101751.19;;;24.54;55.05
26043;BME280;13818;52.156;5.382;2022-07-23T09:06:22;101740.34;;;24.64;55.14
26043;BME280;13818;52.156;5.382;2022-07-23T09:08:48;101744.31;;;24.60;56.37
26043;BME280;13818;52.156;5.382;2022-07-23T09:11:16;101751.31;;;24.43;56.22
26043;BME280;13818;52.156;5.382;2022-07-23T09:13:46;101753.00;;;24.34;55.81
26043;BME280;13818;52.156;5.382;2022-07-23T09:16:15;101756.16;;;24.30;56.19
26043;BME280;13818;52.156;5.382;2022-07-23T09:18:44;101756.09;;;24.10;57.44
26043;BME280;13818;52.156;5.382;2022-07-23T09:21:16;101762.72;;;24.17;55.37
26043;BME280;13818;52.156;5.382;2022-07-23T09:23:46;101759.72;;;23.89;57.29
26043;BME280;13818;52.156;5.382;2022-07-23T09:26:31;101755.75;;;23.72;59.35
26043;BME280;13818;52.156;5.382;2022-07-23T09:29:04;101752.56;;;23.46;61.67
26043;BME280;13818;52.156;5.382;2022-07-23T09:31:33;101759.50;;;23.81;60.20
26043;BME280;13818;52.156;5.382;2022-07-23T09:34:12;101756.69;;;23.83;60.52
26043;BME280;13818;52.156;5.382;2022-07-23T09:36:40;101758.47;;;23.94;60.34
26043;BME280;13818;52.156;5.382;2022-07-23T09:39:08;101758.81;;;24.10;57.72
26043;BME280;13818;52.156;5.382;2022-07-23T09:41:40;101768.53;;;24.44;57.08
26043;BME280;13818;52.156;5.382;2022-07-23T09:44:12;101764.94;;;24.33;56.48
26043;BME280;13818;52.156;5.382;2022-07-23T09:46:40;101767.66;;;24.02;57.05
26043;BME280;13818;52.156;5.382;2022-07-23T09:49:13;101759.56;;;23.18;62.38
26043;BME280;13818;52.156;5.382;2022-07-23T09:51:48;101759.25;;;23.84;59.73
26043;BME280;13818;52.156;5.382;2022-07-23T09:54:26;101756.22;;;24.09;58.60
26043;BME280;13818;52.156;5.382;2022-07-23T09:56:54;101762.19;;;23.93;57.37
26043;BME280;13818;52.156;5.382;2022-07-23T09:59:23;101761.19;;;23.94;58.95
26043;BME280;13818;52.156;5.382;2022-07-23T10:01:52;101766.00;;;24.11;57.94
26043;BME280;13818;52.156;5.382;2022-07-23T10:04:21;101764.91;;;23.71;58.23
26043;BME280;13818;52.156;5.382;2022-07-23T10:06:48;101761.97;;;23.84;58.85
26043;BME280;13818;52.156;5.382;2022-07-23T10:09:25;101756.09;;;24.10;58.42
26043;BME280;13818;52.156;5.382;2022-07-23T10:11:52;101761.38;;;24.02;57.09
26043;BME280;13818;52.156;5.382;2022-07-23T10:14:21;101761.03;;;23.43;60.52
26043;BME280;13818;52.156;5.382;2022-07-23T10:16:48;101763.06;;;23.51;60.52
26043;BME280;13818;52.156;5.382;2022-07-23T10:19:16;101750.00;;;23.45;61.30
26043;BME280;13818;52.156;5.382;2022-07-23T10:21:46;101750.97;;;23.65;61.68
26043;BME280;13818;52.156;5.382;2022-07-23T10:24:21;101747.94;;;23.89;61.21
26043;BME280;13818;52.156;5.382;2022-07-23T10:27:01;101743.47;;;24.09;61.40
26043;BME280;13818;52.156;5.382;2022-07-23T10:29:39;101752.13;;;24.24;58.71
26043;BME280;13818;52.156;5.382;2022-07-23T10:32:17;101756.28;;;24.18;57.56
26043;BME280;13818;52.156;5.382;2022-07-23T10:34:51;101749.06;;;24.08;58.38
26043;BME280;13818;52.156;5.382;2022-07-23T10:37:23;101747.22;;;24.08;58.55
26043;BME280;13818;52.156;5.382;2022-07-23T10:40:09;101750.94;;;24.07;58.84
26043;BME280;13818;52.156;5.382;2022-07-23T10:42:37;101752.41;;;24.21;57.75
26043;BME280;13818;52.156;5.382;2022-07-23T10:45:23;101748.69;;;24.22;57.67
26043;BME280;13818;52.156;5.382;2022-07-23T10:47:50;101744.78;;;23.84;59.63
26043;BME280;13818;52.156;5.382;2022-07-23T10:50:22;101746.63;;;24.04;58.91
26043;BME280;13818;52.156;5.382;2022-07-23T10:53:14;101741.88;;;24.07;57.90
26043;BME280;13818;52.156;5.382;2022-07-23T10:55:52;101735.81;;;24.34;60.42
26043;BME280;13818;52.156;5.382;2022-07-23T10:58:23;101738.94;;;24.19;56.42
26043;BME280;13818;52.156;5.382;2022-07-23T11:00:50;101745.97;;;24.22;56.79
26043;BME280;13818;52.156;5.382;2022-07-23T11:03:31;101740.19;;;24.15;57.38
26043;BME280;13818;52.156;5.382;2022-07-23T11:06:01;101727.81;;;24.52;58.09
26043;BME280;13818;52.156;5.382;2022-07-23T11:08:27;101734.56;;;24.58;54.29
26043;BME280;13818;52.156;5.382;2022-07-23T11:11:07;101735.28;;;24.60;54.90
26043;BME280;13818;52.156;5.382;2022-07-23T11:13:41;101729.72;;;24.71;53.63
26043;BME280;13818;52.156;5.382;2022-07-23T11:16:16;101725.50;;;24.57;54.67
26043;BME280;13818;52.156;5.382;2022-07-23T11:19:10;101727.94;;;24.50;54.36
26043;BME280;13818;52.156;5.382;2022-07-23T11:21:47;101726.09;;;24.51;56.29
26043;BME280;13818;52.156;5.382;2022-07-23T11:24:17;101722.84;;;24.77;61.00
26043;BME280;13818;52.156;5.382;2022-07-23T11:26:47;101726.97;;;24.61;56.61
26043;BME280;13818;52.156;5.382;2022-07-23T11:29:42;101731.09;;;24.46;55.50
26043;BME280;13818;52.156;5.382;2022-07-23T11:32:29;101725.66;;;24.56;55.23
26043;BME280;13818;52.156;5.382;2022-07-23T11:34:56;101731.44;;;24.62;56.33
26043;BME280;13818;52.156;5.382;2022-07-23T11:37:40;101721.13;;;24.85;55.73
26043;BME280;13818;52.156;5.382;2022-07-23T11:40:09;101731.16;;;24.65;56.38
26043;BME280;13818;52.156;5.382;2022-07-23T11:42:38;101721.91;;;24.27;56.68
26043;BME280;13818;52.156;5.382;2022-07-23T11:45:08;101723.94;;;24.45;57.41
26043;BME280;13818;52.156;5.382;2022-07-23T11:47:35;101719.84;;;24.70;56.83
26043;BME280;13818;52.156;5.382;2022-07-23T11:50:05;101730.41;;;24.63;56.07
26043;BME280;13818;52.156;5.382;2022-07-23T11:52:32;101730.44;;;24.73;55.46
26043;BME280;13818;52.156;5.382;2022-07-23T11:55:01;101728.13;;;24.59;55.22
26043;BME280;13818;52.156;5.382;2022-07-23T11:57:31;101725.72;;;24.65;55.99
26043;BME280;13818;52.156;5.382;2022-07-23T12:00:02;101729.94;;;24.39;56.12
26043;BME280;13818;52.156;5.382;2022-07-23T12:02:31;101723.59;;;24.18;58.97
26043;BME280;13818;52.156;5.382;2022-07-23T12:04:57;101728.31;;;24.16;58.85
26043;BME280;13818;52.156;5.382;2022-07-23T12:07:25;101726.75;;;24.24;58.39
26043;BME280;13818;52.156;5.382;2022-07-23T12:09:52;101717.63;;;24.54;58.44
26043;BME280;13818;52.156;5.382;2022-07-23T12:12:19;101721.50;;;24.51;59.47
26043;BME280;13818;52.156;5.382;2022-07-23T12:14:51;101718.06;;;24.59;58.16
26043;BME280;13818;52.156;5.382;2022-07-23T12:17:17;101720.03;;;24.28;58.32
26043;BME280;13818;52.156;5.382;2022-07-23T12:19:45;101716.78;;;24.53;59.15
26043;BME280;13818;52.156;5.382;2022-07-23T12:22:12;101712.00;;;24.46;58.29
26043;BME280;13818;52.156;5.382;2022-07-23T12:24:59;101712.50;;;24.71;57.91
26043;BME280;13818;52.156;5.382;2022-07-23T12:27:26;101709.66;;;24.82;56.47
26043;BME280;13818;52.156;5.382;2022-07-23T12:29:53;101703.91;;;24.75;56.28
26043;BME280;13818;52.156;5.382;2022-07-23T12:32:21;101708.59;;;24.44;57.42
26043;BME280;13818;52.156;5.382;2022-07-23T12:34:51;101704.59;;;24.58;57.67
26043;BME280;13818;52.156;5.382;2022-07-23T12:37:29;101705.31;;;24.50;58.49
26043;BME280;13818;52.156;5.382;2022-07-23T12:39:56;101702.28;;;24.33;59.54
26043;BME280;13818;52.156;5.382;2022-07-23T12:42:23;101702.44;;;24.51;60.33
26043;BME280;13818;52.156;5.382;2022-07-23T12:45:07;101700.84;;;24.39;60.04
26043;BME280;13818;52.156;5.382;2022-07-23T12:47:57;101703.78;;;24.77;59.36
26043;BME280;13818;52.156;5.382;2022-07-23T12:50:49;101693.13;;;25.03;60.45